カラカス の空港の天気 - METARとTAF

シモン・ボリバー空港(バルガス) ( SVMI / CCS ) - ベネズエラ バルガス州、Maiquetia (カラカス近郊)
飛行場実況気象(Metar)
観測時間05/28 07:00 VET (05/28 11:00 UTC)
風向・風速東 1m/s
視程10km以上
天気現象
全天の4割程度の雲 雲底高度 490m
気温24℃
湿度89%
気圧1014hPa
METARSVMI 281100Z 09002KT 9999 SCT016 24/22 Q1014
過去の天気等 Google飛行場航空写真 Wunderground天気予報

過去48時間のMETAR

飛行場予報(TAF)
発表時間: 5/28 00:00 VET (5/28 04:00 UTC)
予報対象時間: 28日2時 VET ~ 29日2時 VET
風向・風速北東 3m/s
視程10km以上
全天の4割程度の雲 雲底高度 490m
28日2時 VET ~ 28日6時 VET に一時的に
風向・風速東北東 1m/s
視程10km以上
全天の4割程度の雲 雲底高度 490m
全天の8割程度の雲 雲底高度 1830m
TAF SVMI 280400Z 2806/2906 05005KT 9999 SCT016 TX32/2818Z TN21/2807Z
TEMPO 2806/2810 07002KT 9999 SCT016 BKN060